• Join FlightAware (Why Join?)
  • Login
  • US Flag 
03:42AM EDT


 

Airport Tracker/Info


-or-


 

Live Flight TrackerFlight Track Log ✈ N75ZM ✈ 16-Oct-2013 ✈ KPDK - KCHS

Flight Track Log - Related Links

Times and Time Zones

All times are in EDT time to prevent confusion due to time zone crossing. See the N75ZM flight status page for this flight to view local times or setup timezone preferences in your user account.

Time Position Orientation Groundspeed Altitude Reporting Facility
EDT Latitude Longitude Course Direction KTS MPH feet Rate Location/Type
07:47AM 33.9000 -84.3000 100° East 92 106 2,000  Level Atlanta TRACON
07:48AM 33.9167 -84.2833 40° Northeast 119 137 2,900 900 Climbing Atlanta TRACON
07:49AM 33.9333 -84.2500 59° Northeast 128 147 3,800 840 Climbing Atlanta TRACON
07:50AM 33.9500 -84.2000 68° East 134 154 4,700 720 Climbing Atlanta TRACON
07:51AM 33.9500 -84.1667 90° East 131 151 5,400 720 Climbing Atlanta TRACON
07:52AM 33.8194 -84.0355 100° East  Level Estimated
07:52AM 33.9500 -84.1167 90° East 133 153 6,200  Level Atlanta TRACON
07:53AM 33.9500 -84.0667 90° East 136 157 6,800 420 Climbing Atlanta TRACON
07:54AM 33.9500 -84.0167 90° East 152 175 7,100 120 Climbing Atlanta TRACON
07:55AM 33.9500 -83.9667 90° East 177 204 7,100  Level Atlanta TRACON
07:56AM 33.9500 -83.9000 90° East 180 207 7,100  Level Atlanta TRACON
07:57AM 33.9500 -83.8500 90° East 178 205 7,100  Level Atlanta TRACON
07:58AM 33.9333 -83.7833 107° East 175 201 7,100  Level Atlanta TRACON
07:59AM 33.9333 -83.7333 90° East 173 199 7,100  Level Atlanta TRACON
08:00AM 33.9167 -83.6833 112° Southeast 172 198 7,100  Level Atlanta TRACON
08:01AM 33.9000 -83.6167 107° East 173 199 7,100  Level Atlanta TRACON
08:02AM 33.8833 -83.5667 112° Southeast 174 200 7,100  Level Atlanta TRACON
08:03AM 33.8667 -83.5167 112° Southeast 175 201 7,100  Level Atlanta TRACON
08:04AM 33.8500 -83.4500 107° East 176 203 7,100  Level Atlanta TRACON
08:05AM 33.8333 -83.3833 107° East 177 204 7,100  Level Atlanta TRACON
08:06AM 33.8333 -83.3333 90° East 177 204 7,100  Level Atlanta TRACON
08:07AM 33.8167 -83.2833 112° Southeast 177 204 7,100  Level Atlanta TRACON
08:08AM 33.8000 -83.2333 112° Southeast 177 204 7,100  Level Atlanta TRACON
08:09AM 33.7833 -83.1833 112° Southeast 175 201 7,100  Level Atlanta TRACON
08:11AM 33.7433 -83.1031 121° Southeast  Level FlightAware Approximate
08:18AM 33.6193 -82.7347 107° East  Level FlightAware Approximate
08:19AM 33.6054 -82.6812 107° East  Level FlightAware Approximate
08:20AM 33.5915 -82.6277 107° East  Level FlightAware Approximate
08:21AM 33.5776 -82.5743 107° East  Level FlightAware Approximate
08:22AM 33.5637 -82.5208 107° East  Level FlightAware Approximate
08:23AM 33.5498 -82.4674 107° East  Level FlightAware Approximate
08:24AM 33.5358 -82.4140 107° East  Level FlightAware Approximate
08:25AM 33.5218 -82.3606 107° East  Level FlightAware Approximate
08:26AM 33.5078 -82.3072 107° East  Level FlightAware Approximate
08:27AM 33.4937 -82.2538 108° East  Level FlightAware Approximate
08:28AM 33.4796 -82.2005 108° East  Level FlightAware Approximate
08:29AM 33.4655 -82.1472 108° East  Level FlightAware Approximate
08:30AM 33.4514 -82.0939 108° East  Level FlightAware Approximate
08:31AM 33.4373 -82.0406 108° East  Level FlightAware Approximate
08:32AM 33.4231 -81.9873 108° East  Level FlightAware Approximate
08:33AM 33.4090 -81.9341 108° East  Level FlightAware Approximate
08:34AM 33.3948 -81.8808 108° East  Level FlightAware Approximate
08:34AM 33.4036 -81.7853 108° East 173 199 7,100  Level Jacksonville Center
08:35AM 33.3805 -81.8276 108° East  Level FlightAware Approximate
08:35AM 33.3886 -81.7308 108° East 184 212 7,100  Level Jacksonville Center
08:36AM 33.3663 -81.7744 108° East  Level FlightAware Approximate
08:36AM 33.3736 -81.6764 108° East 184 212 7,100  Level Jacksonville Center
08:37AM 33.3520 -81.7212 108° East  Level FlightAware Approximate
08:37AM 33.3564 -81.6194 110° East 184 212 7,100  Level Jacksonville Center
08:38AM 33.3377 -81.6680 108° East  Level FlightAware Approximate
08:38AM 33.3411 -81.5650 109° East 184 212 7,100  Level Jacksonville Center
08:39AM 33.3234 -81.6149 108° East  Level FlightAware Approximate
08:39AM 33.3258 -81.5103 108° East 179 206 7,100  Level Jacksonville Center
08:40AM 33.3091 -81.5618 108° East  Level FlightAware Approximate
08:40AM 33.3086 -81.4536 110° East 179 206 7,100  Level Jacksonville Center
08:41AM 33.2953 -81.3992 106° East 174 200 7,100  Level Jacksonville Center
08:42AM 33.2758 -81.3447 113° Southeast 169 194 7,100  Level Jacksonville Center
08:43AM 33.2606 -81.2853 107° East 169 194 7,100  Level Jacksonville Center
08:44AM 33.2453 -81.2311 109° East 169 194 7,100  Level Jacksonville Center
08:45AM 33.2300 -81.1767 109° East 169 194 7,100  Level Jacksonville Center
08:46AM 33.2125 -81.1200 110° East 169 194 7,100  Level Jacksonville Center
08:47AM 33.1992 -81.0656 106° East 169 194 7,100  Level Jacksonville Center
08:48AM 33.1817 -81.0089 110° East 169 194 7,100  Level Jacksonville Center
08:49AM 33.1661 -80.9544 109° East 169 194 7,100  Level Jacksonville Center
08:50AM 33.1508 -80.8978 108° East 169 194 7,100  Level Jacksonville Center
08:51AM 33.1353 -80.8436 109° East 169 194 7,100  Level Jacksonville Center
08:52AM 33.1178 -80.7894 111° Southeast 169 194 7,100 -120 Level Jacksonville Center
08:53AM 33.1022 -80.7328 108° East 169 194 6,900 -360 Descending Jacksonville Center
08:54AM 33.0844 -80.6736 110° East 175 201 6,400 -480 Descending Jacksonville Center
08:55AM 33.0667 -80.6147 110° East 181 208 6,000 -480 Descending Jacksonville Center
08:56AM 33.0508 -80.5531 107° East 186 214 5,500 -540 Descending Jacksonville Center
08:57AM 33.0331 -80.4942 110° East 191 220 5,000 -540 Descending Jacksonville Center
08:58AM 33.0092 -80.4428 119° Southeast 186 214 4,500 -540 Descending Jacksonville Center
09:00AM 32.9903 -80.3871 112° Southeast  Level FlightAware Approximate
09:07AM 32.8856 -80.0389 115° Southeast  Level FlightAware Approximate
09:08AM 32.8833 -80.0333 115° Southeast  Level FlightAware Approximate
09:09AM 32.8986 -80.0405 115° Southeast  Level Estimated
09:10AM 32.8986 -80.0405 115° Southeast  Level Estimated
09:11AM 32.8986 -80.0405 115° Southeast  Level Estimated
09:12AM 32.8986 -80.0405 115° Southeast  Level Estimated
09:13AM 32.8986 -80.0405 115° Southeast  Level Estimated
09:14AM 32.8986 -80.0405 115° Southeast  Level Estimated
09:15AM 32.8986 -80.0405 115° Southeast  Level Estimated
09:16AM 32.8986 -80.0405 115° Southeast  Level Estimated
09:17AM 32.8986 -80.0405 115° Southeast  Level Estimated
09:18AM 32.8986 -80.0405 115° Southeast  Level Estimated